Time;durP1;ratioP1;P1;durP2;ratioP2;P2;SDS_P1;SDS_P2;PMS_P1;PMS_P2;Temp;Humidity;BMP_temperature;BMP_pressure;BME280_temperature;BME280_humidity;BME280_pressure;Samples;Min_cycle;Max_cycle;Signal;HPM_P1;HPM_P2
2022/07/31 00:02:43;;;;;;;;;;;18.60;99.90;;;;;;4993184;28;20320;-80
2022/07/31 00:05:09;;;;;;;;;;;18.60;99.90;;;;;;4965472;28;19930;-78
2022/07/31 00:07:35;;;;;;;;;;;18.60;99.90;;;;;;4975396;28;19933;-78
2022/07/31 00:10:00;;;;;;;;;;;18.60;99.90;;;;;;4977182;28;19947;-79
2022/07/31 00:12:26;;;;;;;;;;;18.60;99.90;;;;;;4958657;28;19929;-79
2022/07/31 00:14:52;;;;;;;;;;;18.60;99.90;;;;;;4974243;28;19929;-77
2022/07/31 00:17:18;;;;;;;;;;;18.50;99.90;;;;;;4958780;28;20312;-79
2022/07/31 00:19:50;;;;;;;;;;;18.60;99.90;;;;;;4994614;28;19972;-78
2022/07/31 00:22:22;;;;;;;;;;;18.40;99.90;;;;;;4996944;28;19926;-78
2022/07/31 00:24:48;;;;;;;;;;;18.50;99.90;;;;;;4994828;28;20396;-81
2022/07/31 00:27:15;;;;;;;;;;;18.50;99.90;;;;;;4997840;28;20024;-78
2022/07/31 00:29:48;;;;;;;;;;;18.50;99.90;;;;;;4972754;28;19929;-79
2022/07/31 00:32:13;;;;;;;;;;;18.50;99.90;;;;;;4984476;28;19929;-78
2022/07/31 00:34:39;;;;;;;;;;;18.50;99.90;;;;;;4985431;28;19925;-78
2022/07/31 00:37:05;;;;;;;;;;;18.50;99.90;;;;;;4984113;28;20430;-78
2022/07/31 00:39:31;;;;;;;;;;;18.50;99.90;;;;;;4994799;28;19925;-79
2022/07/31 00:42:15;;;;;;;;;;;18.50;99.90;;;;;;4988469;28;19929;-78
2022/07/31 00:44:41;;;;;;;;;;;18.50;99.90;;;;;;4989029;28;20126;-79
2022/07/31 00:47:07;;;;;;;;;;;18.50;99.90;;;;;;5015279;28;20444;-79
2022/07/31 00:49:34;;;;;;;;;;;18.50;99.90;;;;;;4975776;28;20394;-80
2022/07/31 00:52:00;;;;;;;;;;;18.50;99.90;;;;;;4983416;28;20015;-77
2022/07/31 00:54:26;;;;;;;;;;;18.50;99.90;;;;;;4961855;28;20341;-77
2022/07/31 00:56:52;;;;;;;;;;;18.50;99.90;;;;;;5000129;28;19937;-78
2022/07/31 00:59:17;;;;;;;;;;;18.50;99.90;;;;;;4974169;28;19929;-77
2022/07/31 01:01:43;;;;;;;;;;;18.50;99.90;;;;;;5007189;23;19926;-78
2022/07/31 01:04:10;;;;;;;;;;;18.50;99.90;;;;;;4932063;28;19941;-78
2022/07/31 01:06:36;;;;;;;;;;;18.50;99.90;;;;;;4950294;28;19926;-77
2022/07/31 01:09:01;;;;;;;;;;;18.50;99.90;;;;;;4933052;28;19941;-78
2022/07/31 01:11:46;;;;;;;;;;;18.50;99.90;;;;;;4950674;28;19930;-78
2022/07/31 01:14:12;;;;;;;;;;;18.40;99.90;;;;;;4951909;28;20405;-77
2022/07/31 01:16:48;;;;;;;;;;;18.40;99.90;;;;;;4950672;28;19930;-77
2022/07/31 01:19:21;;;;;;;;;;;18.40;99.90;;;;;;4951442;28;20013;-78
2022/07/31 01:21:54;;;;;;;;;;;18.40;99.90;;;;;;4951565;28;19926;-77
2022/07/31 01:24:29;;;;;;;;;;;18.40;99.90;;;;;;4950822;28;19930;-77
2022/07/31 01:27:04;;;;;;;;;;;18.30;99.90;;;;;;4935028;28;19930;-79
2022/07/31 01:29:41;;;;;;;;;;;18.30;99.90;;;;;;4933961;28;20440;-77
2022/07/31 01:32:13;;;;;;;;;;;18.20;99.90;;;;;;4945992;28;19954;-77
2022/07/31 01:34:42;;;;;;;;;;;18.20;99.90;;;;;;4943884;28;19948;-77
2022/07/31 01:37:08;;;;;;;;;;;18.20;99.90;;;;;;4935404;28;20055;-77
2022/07/31 01:39:35;;;;;;;;;;;18.20;99.90;;;;;;4949604;28;20478;-77
2022/07/31 01:42:03;;;;;;;;;;;18.10;99.90;;;;;;4945228;28;19985;-77
2022/07/31 01:44:30;;;;;;;;;;;18.10;99.90;;;;;;4951676;28;19926;-77
2022/07/31 01:46:57;;;;;;;;;;;18.10;99.90;;;;;;4949558;28;19934;-77
2022/07/31 01:49:25;;;;;;;;;;;18.00;99.90;;;;;;4945420;28;19992;-77
2022/07/31 01:51:51;;;;;;;;;;;18.00;99.90;;;;;;4951053;28;19930;-77
2022/07/31 01:54:17;;;;;;;;;;;18.00;99.90;;;;;;4966513;28;19930;-78
2022/07/31 01:56:45;;;;;;;;;;;18.00;99.90;;;;;;4952679;28;19930;-77
2022/07/31 01:59:12;;;;;;;;;;;18.00;99.90;;;;;;4953832;28;19968;-77
2022/07/31 02:01:39;;;;;;;;;;;18.00;99.90;;;;;;4945144;28;19930;-78
2022/07/31 02:04:05;;;;;;;;;;;17.90;99.90;;;;;;4954215;28;20001;-78
2022/07/31 02:09:00;;;;;;;;;;;17.90;99.90;;;;;;5226589;23;19941;-77
2022/07/31 02:11:32;;;;;;;;;;;17.90;99.90;;;;;;4964180;28;19932;-78
2022/07/31 02:13:58;;;;;;;;;;;17.90;99.90;;;;;;4973257;28;19930;-79
2022/07/31 02:16:25;;;;;;;;;;;17.90;99.90;;;;;;4973616;28;20240;-78
2022/07/31 02:18:52;;;;;;;;;;;17.90;99.90;;;;;;4977169;28;19936;-78
2022/07/31 02:21:18;;;;;;;;;;;17.90;99.90;;;;;;4939890;28;19933;-78
2022/07/31 02:23:45;;;;;;;;;;;17.90;99.90;;;;;;4973592;28;20516;-78
2022/07/31 02:26:12;;;;;;;;;;;17.90;99.90;;;;;;4974430;28;20312;-77
2022/07/31 02:28:41;;;;;;;;;;;17.90;99.90;;;;;;4960161;28;19941;-78
2022/07/31 02:31:09;;;;;;;;;;;17.80;99.90;;;;;;4972587;28;19932;-79
2022/07/31 02:33:36;;;;;;;;;;;17.90;99.90;;;;;;4973491;28;19934;-78
2022/07/31 02:36:03;;;;;;;;;;;17.80;99.90;;;;;;4955570;28;20033;-79
2022/07/31 02:38:32;;;;;;;;;;;17.80;99.90;;;;;;4971521;28;19952;-78
2022/07/31 02:41:04;;;;;;;;;;;17.80;99.90;;;;;;4958752;28;20016;-78
2022/07/31 02:43:31;;;;;;;;;;;17.80;99.90;;;;;;4972982;28;19933;-78
2022/07/31 02:45:57;;;;;;;;;;;17.80;99.90;;;;;;4972534;28;19925;-78
2022/07/31 02:48:24;;;;;;;;;;;17.80;99.90;;;;;;4957862;28;20392;-78
2022/07/31 02:50:52;;;;;;;;;;;17.80;99.90;;;;;;4964793;28;19926;-78
2022/07/31 02:53:21;;;;;;;;;;;17.80;99.90;;;;;;4989477;28;19973;-78
2022/07/31 02:55:48;;;;;;;;;;;17.80;99.90;;;;;;4959060;28;19981;-78
2022/07/31 02:58:14;;;;;;;;;;;17.80;99.90;;;;;;4942249;28;19932;-79
2022/07/31 03:00:40;;;;;;;;;;;17.80;99.90;;;;;;4954092;28;20012;-79
2022/07/31 03:03:06;;;;;;;;;;;17.80;99.90;;;;;;4969733;28;20016;-78
2022/07/31 03:05:32;;;;;;;;;;;17.80;99.90;;;;;;4980683;28;19925;-77
2022/07/31 03:07:58;;;;;;;;;;;17.80;99.90;;;;;;4949369;28;19988;-79
2022/07/31 03:10:23;;;;;;;;;;;17.70;99.90;;;;;;4972833;28;20020;-78
2022/07/31 03:12:51;;;;;;;;;;;17.80;99.90;;;;;;4980413;28;20020;-78
2022/07/31 03:15:18;;;;;;;;;;;17.90;99.90;;;;;;4955513;28;20007;-78
2022/07/31 03:17:44;;;;;;;;;;;17.70;99.90;;;;;;4952399;28;19926;-78
2022/07/31 03:20:11;;;;;;;;;;;17.70;99.90;;;;;;4955521;28;20316;-78
2022/07/31 03:25:11;;;;;;;;;;;17.70;99.90;;;;;;5008859;28;19926;-78
2022/07/31 03:27:36;;;;;;;;;;;17.50;99.90;;;;;;4993583;28;20079;-78
2022/07/31 03:30:03;;;;;;;;;;;17.70;99.90;;;;;;4974170;28;20425;-79
2022/07/31 03:32:29;;;;;;;;;;;17.70;99.90;;;;;;4979244;28;20376;-78
2022/07/31 03:34:55;;;;;;;;;;;17.70;99.90;;;;;;4991929;28;20415;-79
2022/07/31 03:37:21;;;;;;;;;;;17.70;99.90;;;;;;4976024;28;19937;-79
2022/07/31 03:39:46;;;;;;;;;;;17.70;99.90;;;;;;4993864;28;19929;-78
2022/07/31 03:42:14;;;;;;;;;;;17.60;99.90;;;;;;4997430;28;19925;-78
2022/07/31 03:44:46;;;;;;;;;;;17.60;99.90;;;;;;4980181;28;19933;-78
2022/07/31 03:47:12;;;;;;;;;;;17.60;99.90;;;;;;4972462;28;20179;-80
2022/07/31 03:49:38;;;;;;;;;;;17.60;99.90;;;;;;4997556;28;19967;-78
2022/07/31 03:52:08;;;;;;;;;;;17.50;99.90;;;;;;4992745;28;19961;-78
2022/07/31 03:54:33;;;;;;;;;;;17.50;99.90;;;;;;4994258;28;19944;-79
2022/07/31 03:56:59;;;;;;;;;;;17.50;99.90;;;;;;4978051;28;19929;-78
2022/07/31 03:59:29;;;;;;;;;;;17.40;99.90;;;;;;4991651;28;19932;-79
2022/07/31 04:01:54;;;;;;;;;;;17.40;99.90;;;;;;4963312;28;20287;-78
2022/07/31 04:04:23;;;;;;;;;;;17.40;99.90;;;;;;4978196;28;19987;-78
2022/07/31 04:06:49;;;;;;;;;;;17.40;99.90;;;;;;4989797;28;19987;-77
2022/07/31 04:09:15;;;;;;;;;;;17.40;99.90;;;;;;4960293;28;20383;-78
2022/07/31 04:11:41;;;;;;;;;;;17.40;99.90;;;;;;4992908;28;20648;-78
2022/07/31 04:14:07;;;;;;;;;;;17.40;99.90;;;;;;4995220;28;19925;-78
2022/07/31 04:16:33;;;;;;;;;;;17.40;99.90;;;;;;4973948;28;19930;-79
2022/07/31 04:18:58;;;;;;;;;;;17.40;99.90;;;;;;4966386;28;19947;-78
2022/07/31 04:21:26;;;;;;;;;;;17.40;99.90;;;;;;4993233;28;20430;-78
2022/07/31 04:23:57;;;;;;;;;;;17.40;99.90;;;;;;4958266;28;19944;-78
2022/07/31 04:26:25;;;;;;;;;;;17.50;99.90;;;;;;4991059;28;19960;-78
2022/07/31 04:28:52;;;;;;;;;;;17.50;99.90;;;;;;4994873;28;19936;-79
2022/07/31 04:31:20;;;;;;;;;;;17.50;99.90;;;;;;4980879;28;19925;-79
2022/07/31 04:33:47;;;;;;;;;;;17.50;99.90;;;;;;4977093;28;20331;-79
2022/07/31 04:36:20;;;;;;;;;;;17.50;99.90;;;;;;4972560;28;19938;-80
2022/07/31 04:38:47;;;;;;;;;;;17.60;99.90;;;;;;4994614;28;19932;-80
2022/07/31 04:41:13;;;;;;;;;;;17.70;99.90;;;;;;4978941;28;19934;-79
2022/07/31 04:43:39;;;;;;;;;;;17.70;99.90;;;;;;4955636;28;19933;-79
2022/07/31 04:46:08;;;;;;;;;;;17.70;99.90;;;;;;4974228;28;19926;-79
2022/07/31 04:48:34;;;;;;;;;;;17.70;99.90;;;;;;4972459;28;19925;-79
2022/07/31 04:51:00;;;;;;;;;;;17.70;99.90;;;;;;4958331;28;19925;-79
2022/07/31 04:53:26;;;;;;;;;;;17.80;99.90;;;;;;4961488;28;20526;-78
2022/07/31 04:58:36;;;;;;;;;;;17.80;99.90;;;;;;4989555;28;20454;-78
2022/07/31 05:01:07;;;;;;;;;;;17.80;99.90;;;;;;5003299;28;19925;-78
2022/07/31 05:03:33;;;;;;;;;;;17.80;99.90;;;;;;4969157;28;19937;-79
2022/07/31 05:06:11;;;;;;;;;;;17.80;99.90;;;;;;4974750;28;20020;-78
2022/07/31 05:08:37;;;;;;;;;;;17.80;99.90;;;;;;4982533;28;19929;-79
2022/07/31 05:11:22;;;;;;;;;;;17.80;99.90;;;;;;4985652;28;20017;-78
2022/07/31 05:13:48;;;;;;;;;;;17.80;99.90;;;;;;4959584;28;19930;-82
2022/07/31 05:16:15;;;;;;;;;;;17.80;99.90;;;;;;4989212;28;19930;-80
2022/07/31 05:18:41;;;;;;;;;;;17.80;99.90;;;;;;4990260;28;20012;-81
2022/07/31 05:21:07;;;;;;;;;;;17.80;99.90;;;;;;4974149;28;20111;-81
2022/07/31 05:23:33;;;;;;;;;;;17.90;99.90;;;;;;4973017;28;19929;-81
2022/07/31 05:25:58;;;;;;;;;;;17.90;99.90;;;;;;4973825;28;19926;-79
2022/07/31 05:28:24;;;;;;;;;;;18.00;99.90;;;;;;4962153;28;20292;-79
2022/07/31 05:30:52;;;;;;;;;;;18.00;99.90;;;;;;4963704;28;19926;-79
2022/07/31 05:33:18;;;;;;;;;;;18.10;99.90;;;;;;4994340;28;19933;-79
2022/07/31 05:35:44;;;;;;;;;;;18.10;99.90;;;;;;4967797;28;19971;-80
2022/07/31 05:38:10;;;;;;;;;;;18.10;99.90;;;;;;4989191;28;20051;-79
2022/07/31 05:40:35;;;;;;;;;;;18.10;99.90;;;;;;4990126;28;19933;-79
2022/07/31 05:43:02;;;;;;;;;;;18.10;99.90;;;;;;4958679;28;19925;-81
2022/07/31 05:45:28;;;;;;;;;;;18.10;99.90;;;;;;4974624;28;19933;-80
2022/07/31 05:47:54;;;;;;;;;;;18.10;99.90;;;;;;4992191;28;19925;-81
2022/07/31 05:50:20;;;;;;;;;;;18.10;99.90;;;;;;4993802;28;20319;-79
2022/07/31 05:52:48;;;;;;;;;;;18.10;99.90;;;;;;4974003;28;19930;-81
2022/07/31 05:55:14;;;;;;;;;;;18.10;99.90;;;;;;4974124;28;20020;-82
2022/07/31 05:57:40;;;;;;;;;;;18.10;99.90;;;;;;4989871;28;20020;-80
2022/07/31 06:00:07;;;;;;;;;;;18.20;99.90;;;;;;4965359;28;20387;-80
2022/07/31 06:02:33;;;;;;;;;;;18.20;99.90;;;;;;4984553;28;20000;-87
2022/07/31 06:04:59;;;;;;;;;;;18.20;99.90;;;;;;4981699;28;20020;-80
2022/07/31 06:07:28;;;;;;;;;;;18.20;99.90;;;;;;4959282;28;20030;-79
2022/07/31 06:09:54;;;;;;;;;;;18.30;99.90;;;;;;4973392;28;20375;-81
2022/07/31 06:12:19;;;;;;;;;;;18.20;99.90;;;;;;4974189;28;19984;-78
2022/07/31 06:14:45;;;;;;;;;;;18.30;99.90;;;;;;4988420;28;19925;-81
2022/07/31 06:17:11;;;;;;;;;;;18.30;99.90;;;;;;4972410;28;19941;-79
2022/07/31 06:19:37;;;;;;;;;;;18.40;99.90;;;;;;4973612;28;19925;-78
2022/07/31 06:22:03;;;;;;;;;;;18.40;99.90;;;;;;4990643;28;19972;-82
2022/07/31 06:24:28;;;;;;;;;;;18.40;99.90;;;;;;4980342;28;19965;-83
2022/07/31 06:26:58;;;;;;;;;;;18.40;99.90;;;;;;4955517;28;19984;-79
2022/07/31 06:29:24;;;;;;;;;;;18.50;99.90;;;;;;4992613;28;20387;-79
2022/07/31 06:31:51;;;;;;;;;;;18.50;99.90;;;;;;4972079;28;20568;-79
2022/07/31 06:34:17;;;;;;;;;;;18.60;99.90;;;;;;4972113;28;20017;-79
2022/07/31 06:36:42;;;;;;;;;;;18.60;99.90;;;;;;4986071;28;19952;-80
2022/07/31 06:39:08;;;;;;;;;;;18.70;99.90;;;;;;4958117;28;20390;-80
2022/07/31 06:41:47;;;;;;;;;;;18.70;99.90;;;;;;4942749;28;19934;-85
2022/07/31 06:44:18;;;;;;;;;;;18.80;99.90;;;;;;4945910;28;19932;-81
2022/07/31 06:46:45;;;;;;;;;;;18.90;99.90;;;;;;4974678;28;20363;-79
2022/07/31 06:49:11;;;;;;;;;;;18.90;99.90;;;;;;4938545;28;19965;-81
2022/07/31 06:51:37;;;;;;;;;;;19.00;99.90;;;;;;4958807;28;19926;-87
2022/07/31 06:54:05;;;;;;;;;;;19.10;99.90;;;;;;4957786;28;19930;-84
2022/07/31 06:56:32;;;;;;;;;;;19.10;99.90;;;;;;4968194;28;20029;-82
2022/07/31 06:59:20;;;;;;;;;;;19.20;99.90;;;;;;4972511;28;20015;-83
2022/07/31 07:01:49;;;;;;;;;;;19.20;99.90;;;;;;4988834;28;19988;-84
2022/07/31 07:04:15;;;;;;;;;;;19.30;99.90;;;;;;4974218;28;19973;-80
2022/07/31 07:06:41;;;;;;;;;;;19.20;99.90;;;;;;4941299;28;19938;-81
2022/07/31 07:09:07;;;;;;;;;;;19.30;99.90;;;;;;4975565;28;19930;-81
2022/07/31 07:11:33;;;;;;;;;;;19.40;99.90;;;;;;4974562;28;20017;-85
2022/07/31 07:13:58;;;;;;;;;;;19.40;99.90;;;;;;4954032;28;19937;-79
2022/07/31 07:16:24;;;;;;;;;;;19.40;99.90;;;;;;4938143;28;19949;-77
2022/07/31 07:18:50;;;;;;;;;;;19.40;99.90;;;;;;4955329;28;19926;-77
2022/07/31 07:21:22;;;;;;;;;;;19.50;99.90;;;;;;4957325;28;19933;-83
2022/07/31 07:23:50;;;;;;;;;;;19.50;99.90;;;;;;4978283;28;19969;-87
2022/07/31 07:26:16;;;;;;;;;;;19.50;99.90;;;;;;4980065;28;19976;-84
2022/07/31 07:28:43;;;;;;;;;;;19.50;99.90;;;;;;4962754;28;19930;-83
2022/07/31 07:31:09;;;;;;;;;;;19.50;99.90;;;;;;4991579;28;19929;-80
2022/07/31 07:33:35;;;;;;;;;;;19.50;99.90;;;;;;4996144;28;19931;-80
2022/07/31 07:36:01;;;;;;;;;;;19.50;99.90;;;;;;4973556;28;19976;-81
2022/07/31 07:38:33;;;;;;;;;;;19.50;99.90;;;;;;4990483;28;20369;-85
2022/07/31 07:41:01;;;;;;;;;;;19.50;99.90;;;;;;5009150;28;19984;-79
2022/07/31 07:43:28;;;;;;;;;;;19.60;99.90;;;;;;4992067;28;20333;-81
2022/07/31 07:45:54;;;;;;;;;;;19.60;99.90;;;;;;4974856;28;19985;-79
2022/07/31 07:48:21;;;;;;;;;;;19.70;99.90;;;;;;4992383;28;19929;-81
2022/07/31 07:50:47;;;;;;;;;;;19.70;99.90;;;;;;4960247;28;19972;-78
2022/07/31 07:53:13;;;;;;;;;;;19.70;99.90;;;;;;4956564;28;19968;-80
2022/07/31 07:55:39;;;;;;;;;;;19.80;99.90;;;;;;4990904;28;19930;-79
2022/07/31 07:58:04;;;;;;;;;;;19.80;99.90;;;;;;4992141;28;19929;-82
2022/07/31 08:00:30;;;;;;;;;;;19.80;99.90;;;;;;4970403;28;19953;-84
2022/07/31 08:02:56;;;;;;;;;;;20.00;99.90;;;;;;4966910;28;20326;-81
2022/07/31 08:05:22;;;;;;;;;;;20.00;99.90;;;;;;4992262;28;19929;-79
2022/07/31 08:07:48;;;;;;;;;;;20.00;99.90;;;;;;4992393;28;19972;-81
2022/07/31 08:10:17;;;;;;;;;;;20.10;99.90;;;;;;4971422;28;20686;-81
2022/07/31 08:12:44;;;;;;;;;;;20.20;99.90;;;;;;4972377;28;19942;-77
2022/07/31 08:15:10;;;;;;;;;;;20.40;99.90;;;;;;4989650;28;19972;-77
2022/07/31 08:17:36;;;;;;;;;;;20.50;99.90;;;;;;4958900;28;19969;-80
2022/07/31 08:20:04;;;;;;;;;;;20.60;99.90;;;;;;4974748;28;19937;-80
2022/07/31 08:22:49;;;;;;;;;;;21.00;99.90;;;;;;4974833;28;19921;-85
2022/07/31 08:25:15;;;;;;;;;;;21.60;99.90;;;;;;4975351;28;19933;-78
2022/07/31 08:27:42;;;;;;;;;;;22.00;99.90;;;;;;4999084;28;19933;-79
2022/07/31 08:30:08;;;;;;;;;;;22.20;99.90;;;;;;4972959;28;19929;-79
2022/07/31 08:32:34;;;;;;;;;;;22.20;99.90;;;;;;4976442;28;19933;-79
2022/07/31 08:35:01;;;;;;;;;;;22.10;99.90;;;;;;4975332;28;19980;-78
2022/07/31 08:37:26;;;;;;;;;;;22.00;99.90;;;;;;4979318;28;20019;-80
2022/07/31 08:39:52;;;;;;;;;;;21.90;99.90;;;;;;4972657;28;19999;-80
2022/07/31 08:42:20;;;;;;;;;;;21.80;99.90;;;;;;4974337;28;19928;-79
2022/07/31 08:44:48;;;;;;;;;;;21.80;99.90;;;;;;4997654;28;19940;-80
2022/07/31 08:47:18;;;;;;;;;;;21.70;99.90;;;;;;4960387;28;19936;-79
2022/07/31 08:49:45;;;;;;;;;;;21.70;99.90;;;;;;4974406;28;20065;-80
2022/07/31 08:52:16;;;;;;;;;;;21.70;99.90;;;;;;4974658;28;19932;-78
2022/07/31 08:54:42;;;;;;;;;;;21.60;99.90;;;;;;4974320;28;19922;-80
2022/07/31 08:57:09;;;;;;;;;;;21.60;99.90;;;;;;4985064;28;19979;-80
2022/07/31 08:59:36;;;;;;;;;;;21.50;99.90;;;;;;4988882;28;19933;-80
2022/07/31 09:02:03;;;;;;;;;;;21.50;99.90;;;;;;5001292;28;20009;-78
2022/07/31 09:04:30;;;;;;;;;;;21.40;99.90;;;;;;4978251;28;19936;-78
2022/07/31 09:06:59;;;;;;;;;;;21.30;99.90;;;;;;4989212;28;19979;-78
2022/07/31 09:09:44;;;;;;;;;;;21.30;99.90;;;;;;4992504;28;19933;-78
2022/07/31 09:12:10;;;;;;;;;;;21.20;99.90;;;;;;4961402;28;19936;-78
2022/07/31 09:14:46;;;;;;;;;;;21.10;99.90;;;;;;4974356;28;19926;-81
2022/07/31 09:17:14;;;;;;;;;;;21.00;99.90;;;;;;4991889;28;19929;-80
2022/07/31 09:20:24;;;;;;;;;;;21.00;99.90;;;;;;4951737;28;20008;-82
2022/07/31 09:23:19;;;;;;;;;;;21.00;99.90;;;;;;4946718;28;19927;-80
2022/07/31 09:26:04;;;;;;;;;;;20.80;99.90;;;;;;4954911;28;19965;-80
2022/07/31 09:28:44;;;;;;;;;;;20.80;99.90;;;;;;4927317;28;19937;-80
2022/07/31 09:31:12;;;;;;;;;;;20.70;99.90;;;;;;4962066;28;20178;-81
2022/07/31 09:33:43;;;;;;;;;;;20.70;99.90;;;;;;4933018;29;19930;-80
2022/07/31 09:36:09;;;;;;;;;;;20.70;99.90;;;;;;4932225;28;19954;-79
2022/07/31 09:38:40;;;;;;;;;;;20.70;99.90;;;;;;4938252;29;19982;-82
2022/07/31 09:41:09;;;;;;;;;;;20.60;99.90;;;;;;4936514;29;19930;-83
2022/07/31 09:43:35;;;;;;;;;;;20.60;99.90;;;;;;4955568;28;19930;-80
2022/07/31 09:46:23;;;;;;;;;;;20.60;99.90;;;;;;4974945;28;19930;-81
2022/07/31 09:48:56;;;;;;;;;;;20.60;99.90;;;;;;4936005;28;19985;-82
2022/07/31 09:51:36;;;;;;;;;;;20.60;99.90;;;;;;4980216;28;19925;-80
2022/07/31 09:54:11;;;;;;;;;;;20.80;99.90;;;;;;4998248;28;19926;-89
2022/07/31 09:56:57;;;;;;;;;;;20.60;99.90;;;;;;4967766;28;19932;-83
2022/07/31 09:59:25;;;;;;;;;;;20.60;99.90;;;;;;4978850;28;19933;-86
2022/07/31 10:01:56;;;;;;;;;;;20.50;99.90;;;;;;4998019;28;19926;-85
2022/07/31 10:07:53;;;;;;;;;;;20.70;99.90;;;;;;4897940;28;19977;-85
2022/07/31 10:10:28;;;;;;;;;;;20.40;99.90;;;;;;4987032;28;19991;-82
2022/07/31 10:12:56;;;;;;;;;;;20.30;99.90;;;;;;4993835;28;19926;-83
2022/07/31 10:15:41;;;;;;;;;;;20.20;99.90;;;;;;4989085;28;20016;-82
2022/07/31 10:18:10;;;;;;;;;;;20.20;99.90;;;;;;4992154;28;20370;-80
2022/07/31 10:20:39;;;;;;;;;;;20.10;99.90;;;;;;4968454;28;19925;-80
2022/07/31 10:23:15;;;;;;;;;;;20.10;99.90;;;;;;4985325;28;20390;-82
2022/07/31 10:25:46;;;;;;;;;;;20.10;99.90;;;;;;4991226;28;19925;-80
2022/07/31 10:28:13;;;;;;;;;;;20.00;99.90;;;;;;4983014;28;19925;-81
2022/07/31 10:30:39;;;;;;;;;;;20.10;99.90;;;;;;4992370;28;20469;-79
2022/07/31 10:33:05;;;;;;;;;;;20.00;99.90;;;;;;4978482;28;19926;-82
2022/07/31 10:35:37;;;;;;;;;;;20.00;99.90;;;;;;4995492;28;20003;-80
2022/07/31 10:38:24;;;;;;;;;;;20.00;99.90;;;;;;5003863;28;20012;-81
2022/07/31 10:40:56;;;;;;;;;;;20.10;99.90;;;;;;4971916;28;19929;-81
2022/07/31 10:43:49;;;;;;;;;;;20.10;99.90;;;;;;5017850;28;19933;-80
2022/07/31 10:46:25;;;;;;;;;;;20.10;99.90;;;;;;4974021;28;19925;-79
2022/07/31 10:48:54;;;;;;;;;;;20.00;99.90;;;;;;4991906;28;19926;-80
2022/07/31 10:51:23;;;;;;;;;;;20.00;99.90;;;;;;4976916;28;19925;-83
2022/07/31 10:54:00;;;;;;;;;;;20.00;99.90;;;;;;4980980;28;19932;-84
2022/07/31 10:56:27;;;;;;;;;;;19.90;99.90;;;;;;4963812;28;19936;-80
2022/07/31 10:58:54;;;;;;;;;;;19.90;99.90;;;;;;4965738;28;19929;-81
2022/07/31 11:01:25;;;;;;;;;;;20.20;99.90;;;;;;4967355;28;19932;-79
2022/07/31 11:03:58;;;;;;;;;;;19.80;99.90;;;;;;4988526;28;19925;-83
2022/07/31 11:06:25;;;;;;;;;;;19.80;99.90;;;;;;4978869;28;19925;-83
2022/07/31 11:08:52;;;;;;;;;;;19.80;99.90;;;;;;4979783;28;19925;-80
2022/07/31 11:11:29;;;;;;;;;;;19.40;99.90;;;;;;4981416;28;19933;-80
2022/07/31 11:13:56;;;;;;;;;;;19.70;99.90;;;;;;4982508;28;20382;-81
2022/07/31 11:16:22;;;;;;;;;;;19.70;99.90;;;;;;4991265;28;20441;-82
2022/07/31 11:19:05;;;;;;;;;;;19.70;99.90;;;;;;4983383;28;20506;-82
2022/07/31 11:21:35;;;;;;;;;;;19.70;99.90;;;;;;5017151;28;19976;-80
2022/07/31 11:24:24;;;;;;;;;;;19.60;99.90;;;;;;4986829;28;19968;-82
2022/07/31 11:26:51;;;;;;;;;;;19.60;99.90;;;;;;4994170;28;20312;-82
2022/07/31 11:29:27;;;;;;;;;;;19.60;99.90;;;;;;4979241;28;19926;-82
2022/07/31 11:32:13;;;;;;;;;;;19.60;99.90;;;;;;5009324;28;20381;-79
2022/07/31 11:34:56;;;;;;;;;;;19.60;99.90;;;;;;4997632;28;19936;-81
2022/07/31 11:37:23;;;;;;;;;;;19.50;99.90;;;;;;4993899;28;19941;-82
2022/07/31 11:39:51;;;;;;;;;;;19.50;99.90;;;;;;4977864;28;19933;-82
2022/07/31 11:42:17;;;;;;;;;;;19.50;99.90;;;;;;5002720;28;19929;-82
2022/07/31 11:44:43;;;;;;;;;;;19.50;99.90;;;;;;4976278;28;20474;-82
2022/07/31 11:47:09;;;;;;;;;;;19.50;99.90;;;;;;4998277;28;20008;-82
2022/07/31 11:50:18;;;;;;;;;;;19.40;99.90;;;;;;4972537;28;19997;-83
2022/07/31 11:52:46;;;;;;;;;;;19.40;99.90;;;;;;4975642;28;19968;-83
2022/07/31 11:55:14;;;;;;;;;;;19.30;99.90;;;;;;4976733;28;19926;-82
2022/07/31 11:57:44;;;;;;;;;;;19.30;99.90;;;;;;4993739;28;19937;-86
2022/07/31 12:00:28;;;;;;;;;;;19.30;99.90;;;;;;4948275;28;19935;-85
2022/07/31 12:06:03;;;;;;;;;;;19.10;99.90;;;;;;4947882;28;19970;-85
2022/07/31 12:08:33;;;;;;;;;;;19.20;99.90;;;;;;4936630;29;19962;-84
2022/07/31 12:11:03;;;;;;;;;;;19.20;99.90;;;;;;4918794;28;19926;-87
2022/07/31 12:13:48;;;;;;;;;;;19.10;99.90;;;;;;4921546;28;19934;-90
2022/07/31 12:16:19;;;;;;;;;;;19.00;99.90;;;;;;4934871;29;19930;-87
2022/07/31 12:18:53;;;;;;;;;;;19.00;99.90;;;;;;4920598;29;20340;-91
2022/07/31 12:21:28;;;;;;;;;;;19.10;99.90;;;;;;4918932;29;19926;-89
2022/07/31 12:23:58;;;;;;;;;;;19.00;99.90;;;;;;4919815;29;19926;-92
2022/07/31 12:26:42;;;;;;;;;;;18.70;99.90;;;;;;4899520;29;20002;-86
2022/07/31 12:29:13;;;;;;;;;;;18.90;99.90;;;;;;4937838;29;19939;-85
2022/07/31 12:35:17;;;;;;;;;;;18.80;99.90;;;;;;4981183;28;19937;-84
2022/07/31 12:38:01;;;;;;;;;;;18.70;99.90;;;;;;4947396;28;19930;-84
2022/07/31 12:40:49;;;;;;;;;;;18.70;99.90;;;;;;4944468;28;19936;-82
2022/07/31 12:43:21;;;;;;;;;;;18.70;99.90;;;;;;4936157;28;19926;-83
2022/07/31 12:46:03;;;;;;;;;;;18.80;99.90;;;;;;4935016;28;19970;-86
2022/07/31 12:48:34;;;;;;;;;;;18.80;99.90;;;;;;4951794;28;19996;-86
2022/07/31 12:51:03;;;;;;;;;;;18.70;99.90;;;;;;4176767;23;20137;-82
2022/07/31 12:53:29;;;;;;;;;;;18.70;99.90;;;;;;4957975;28;20009;-82
2022/07/31 12:55:57;;;;;;;;;;;18.80;99.90;;;;;;4940838;28;20004;-80
2022/07/31 12:58:25;;;;;;;;;;;18.80;99.90;;;;;;4930876;28;20551;-82
2022/07/31 13:00:53;;;;;;;;;;;18.70;99.90;;;;;;4916926;28;19945;-83
2022/07/31 13:03:20;;;;;;;;;;;18.70;99.90;;;;;;4930333;28;19930;-84
2022/07/31 13:09:12;;;;;;;;;;;18.80;99.90;;;;;;4932685;29;20626;-84
2022/07/31 13:11:38;;;;;;;;;;;18.90;99.90;;;;;;4913625;29;19962;-86
2022/07/31 13:14:04;;;;;;;;;;;18.90;99.90;;;;;;4927357;28;19930;-81
2022/07/31 13:16:34;;;;;;;;;;;18.90;99.90;;;;;;4956988;28;19930;-84
2022/07/31 13:19:06;;;;;;;;;;;18.80;99.90;;;;;;4949297;28;19933;-92
2022/07/31 13:21:45;;;;;;;;;;;19.00;99.90;;;;;;4956477;28;19988;-88
2022/07/31 13:24:16;;;;;;;;;;;18.90;99.90;;;;;;4937949;28;20114;-87
2022/07/31 13:26:44;;;;;;;;;;;18.70;99.90;;;;;;4955632;28;19934;-85
2022/07/31 13:29:11;;;;;;;;;;;18.90;99.90;;;;;;4937104;28;20324;-86
2022/07/31 13:31:52;;;;;;;;;;;18.90;99.90;;;;;;4965344;28;19926;-88
2022/07/31 13:34:23;;;;;;;;;;;19.00;99.90;;;;;;4934378;28;19926;-85
2022/07/31 13:36:55;;;;;;;;;;;19.00;99.90;;;;;;4938361;28;20264;-87
2022/07/31 13:39:21;;;;;;;;;;;19.00;99.90;;;;;;4939766;28;19930;-90
2022/07/31 13:41:47;;;;;;;;;;;19.00;99.90;;;;;;4943347;28;19988;-85
2022/07/31 13:44:12;;;;;;;;;;;18.90;99.90;;;;;;4947599;28;20528;-90
2022/07/31 13:46:39;;;;;;;;;;;18.90;99.90;;;;;;4918013;29;19934;-88
2022/07/31 13:49:10;;;;;;;;;;;18.90;99.90;;;;;;4924479;28;19930;-85
2022/07/31 13:51:36;;;;;;;;;;;18.90;99.90;;;;;;4922059;28;19926;-86
2022/07/31 13:57:27;;;;;;;;;;;19.00;99.90;;;;;;4954364;28;19926;-87
2022/07/31 13:59:53;;;;;;;;;;;19.00;99.90;;;;;;4920525;28;20470;-87
2022/07/31 14:02:48;;;;;;;;;;;19.00;99.90;;;;;;4947104;28;20197;-90
2022/07/31 14:05:48;;;;;;;;;;;19.10;99.90;;;;;;4954140;28;19934;-87
2022/07/31 14:11:23;;;;;;;;;;;19.10;99.90;;;;;;4950273;28;19934;-85
2022/07/31 14:13:59;;;;;;;;;;;19.20;99.90;;;;;;4946927;28;20068;-84
2022/07/31 14:16:47;;;;;;;;;;;18.60;99.90;;;;;;4917482;28;19934;-85
2022/07/31 14:19:16;;;;;;;;;;;19.20;99.90;;;;;;4941061;28;20332;-85
2022/07/31 14:21:48;;;;;;;;;;;19.20;99.90;;;;;;4946202;28;19933;-82
2022/07/31 14:24:14;;;;;;;;;;;19.40;99.90;;;;;;4950040;28;19953;-84
2022/07/31 14:26:52;;;;;;;;;;;19.40;99.90;;;;;;4921608;28;20372;-83
2022/07/31 14:29:40;;;;;;;;;;;19.40;99.90;;;;;;5110032;23;19960;-84
2022/07/31 14:35:12;;;;;;;;;;;19.40;99.90;;;;;;4939186;29;20033;-84
2022/07/31 14:37:40;;;;;;;;;;;19.60;99.90;;;;;;4935678;29;19970;-82
2022/07/31 14:40:06;;;;;;;;;;;19.60;99.90;;;;;;4925305;28;20435;-80
2022/07/31 14:42:34;;;;;;;;;;;19.70;99.90;;;;;;4941399;29;20360;-82
2022/07/31 14:45:05;;;;;;;;;;;19.70;99.90;;;;;;4937672;29;20381;-82
2022/07/31 14:47:32;;;;;;;;;;;19.70;99.90;;;;;;4933524;29;20428;-82
2022/07/31 14:49:58;;;;;;;;;;;19.80;99.90;;;;;;4947021;28;20022;-82
2022/07/31 14:52:25;;;;;;;;;;;19.80;99.90;;;;;;4940066;29;20355;-81
2022/07/31 14:54:58;;;;;;;;;;;19.80;99.90;;;;;;4939580;29;20301;-84
2022/07/31 14:57:28;;;;;;;;;;;19.90;99.90;;;;;;4931049;28;19984;-83
2022/07/31 15:00:21;;;;;;;;;;;20.00;99.90;;;;;;4915897;28;19974;-85
2022/07/31 15:02:48;;;;;;;;;;;19.90;99.90;;;;;;4929010;29;19969;-83